Terminal Aerodrome Forecast
Issued by NWS

Current Version | Previous Version | Graphics & Text | Print | Product List | Glossary On
Versions: 1 2 3 4 5 6 7 8 9 10 11 12 13 14
814
FTUS41 KILN 190546
TAFLCK
TAF
KLCK 190546Z 1906/2006 29010KT P6SM OVC012
      TEMPO 1906/1907 5SM BR OVC006
     FM190700 30010KT P6SM -SHRA OVC008
     FM190900 32012G20KT P6SM -SHSN OVC008
     FM191400 33011G18KT P6SM VCSH OVC012
     FM191600 34015G25KT P6SM BKN018
     FM192000 32014G22KT P6SM BKN035
     FM200000 32006KT P6SM SCT050=

USA.gov is the U.S. government's official web portal to all federal, state and local government web resources and services.